Flight Track Log - Related Links

Times and Time Zones

All times are in EDT time to prevent confusion due to time zone crossing. See the BVN8571 flight status page for this flight to view local times or setup timezone preferences in your user account.

Time Position Orientation Groundspeed Altitude Reporting Facility
EDT Latitude Longitude Course Direction KTS MPH feet Rate Location/Type
Tue 07:57:09 AM 41.3061 -95.9017 324° Northwest 79 91 1,300  Level Minneapolis Center
Tue 07:58:10 AM 41.3264 -95.9214 324° Northwest 95 109 1,900 645 Climbing Minneapolis Center
Tue 07:59:10 AM 41.3453 -95.9553 307° West 116 133 2,600 694 Climbing Minneapolis Center
Tue 08:00:11 AM 41.3397 -95.9978 260° West 125 144 3,300 661 Climbing Minneapolis Center
Tue 08:01:17 AM 41.3314 -96.0347 253° West 120 138 4,000 744 Climbing Minneapolis Center
Tue 08:02:12 AM 41.3203 -96.0858 254° West 122 140 4,800 787 Climbing Minneapolis Center
Tue 08:03:19 AM 41.3108 -96.1342 255° West 129 148 5,600 689 Climbing Minneapolis Center
Tue 08:04:14 AM 41.3031 -96.1767 256° West 124 143 6,200 626 Climbing Minneapolis Center
Tue 08:05:14 AM 41.2931 -96.2194 253° West 127 146 6,800 645 Climbing Minneapolis Center
Tue 08:06:15 AM 41.2836 -96.2675 255° West 130 150 7,500 595 Climbing Minneapolis Center
Tue 08:07:15 AM 41.2742 -96.3186 256° West 143 165 8,000 248 Climbing Minneapolis Center
Tue 08:08:16 AM 41.2614 -96.3781 254° West 174 200 8,000  Level Minneapolis Center
Tue 08:09:17 AM 41.2506 -96.4403 257° West 170 196 8,000  Level Minneapolis Center
Tue 08:10:17 AM 41.2375 -96.4997 254° West 168 193 8,000  Level Minneapolis Center
Tue 08:11:18 AM 41.2242 -96.5594 253° West 167 192 8,000  Level Minneapolis Center
Tue 08:12:12 AM 41.2150 -96.6131 257° West 166 191 8,000  Level Minneapolis Center
Tue 08:13:13 AM 41.2039 -96.6722 256° West 166 191 8,000  Level Minneapolis Center
Tue 08:14:14 AM 41.1886 -96.7347 252° West 167 192 8,000  Level Minneapolis Center
Tue 08:15:14 AM 41.1775 -96.7942 256° West 168 193 8,000  Level Minneapolis Center
Tue 08:16:21 AM 41.1625 -96.8592 253° West 167 192 8,000  Level Minneapolis Center
Tue 08:17:22 AM 41.1514 -96.9183 256° West 166 191 8,000  Level Minneapolis Center
Tue 08:18:43 AM 41.1492 -96.9903 268° West 166 191 8,000  Level Minneapolis Center
Tue 08:19:45 AM 41.1378 -97.0489 256° West 165 190 8,000  Level Minneapolis Center
Tue 08:20:46 AM 41.1272 -97.1081 257° West 165 190 8,000  Level Minneapolis Center
Tue 08:21:48 AM 41.1142 -97.1667 254° West 166 191 8,000  Level Minneapolis Center
Tue 08:22:50 AM 41.0989 -97.2369 254° West 165 190 8,000  Level Minneapolis Center
Tue 08:23:51 AM 41.0864 -97.2956 254° West 165 190 8,000  Level Minneapolis Center
Tue 08:24:53 AM 41.0769 -97.3544 258° West 164 189 8,000  Level Minneapolis Center
Tue 08:25:55 AM 41.0636 -97.4150 254° West 165 190 8,000  Level Minneapolis Center
Tue 08:26:56 AM 41.0517 -97.4742 255° West 166 191 8,000  Level Minneapolis Center
Tue 08:27:58 AM 41.0414 -97.5200 253° West 164 189 8,000  Level Minneapolis Center
Tue 08:29:00 AM 41.0283 -97.5914 256° West 166 191 8,000  Level Minneapolis Center
Tue 08:30:02 AM 41.0161 -97.6492 254° West 164 189 8,000  Level Minneapolis Center
Tue 08:31:03 AM 41.0036 -97.7069 254° West 164 189 8,000 49 Level Minneapolis Center
Tue 08:32:05 AM 40.9900 -97.7778 256° West 165 190 8,100 48 Climbing Minneapolis Center
Tue 08:33:07 AM 40.9781 -97.8372 255° West 167 192 8,100  Level Minneapolis Center
Tue 08:34:08 AM 40.9653 -97.8950 254° West 164 189 8,100  Level Minneapolis Center
Tue 08:35:22 AM 40.9531 -97.9536 255° West 165 190 8,100  Level Minneapolis Center
Tue 08:36:24 AM 40.9383 -98.0244 255° West 166 191 8,100  Level Minneapolis Center
Tue 08:37:26 AM 40.9289 -98.0714 255° West 165 190 8,100  Level Minneapolis Center
Tue 08:38:28 AM 40.9136 -98.1411 254° West 165 190 8,100 -49 Level Minneapolis Center
Tue 08:39:29 AM 40.9014 -98.2003 255° West 165 190 8,000 -49 Descending Minneapolis Center
Tue 08:40:31 AM 40.8867 -98.2725 255° West 169 194 8,000  Level Minneapolis Center
Tue 08:41:33 AM 40.8736 -98.3314 254° West 167 192 8,000 -244 Level Minneapolis Center
Tue 08:42:34 AM 40.8606 -98.3911 254° West 167 192 7,500 -537 Descending Minneapolis Center
Tue 08:43:36 AM 40.8456 -98.4572 253° West 179 206 6,900 -532 Descending Minneapolis Center
Tue 08:44:38 AM 40.8328 -98.5217 255° West 182 209 6,400 -439 Descending Minneapolis Center
Tue 08:45:39 AM 40.8189 -98.5856 254° West 181 208 6,000 -390 Descending Minneapolis Center
Tue 08:46:41 AM 40.8050 -98.6483 254° West 179 206 5,600 -387 Descending Minneapolis Center
Tue 08:47:43 AM 40.7917 -98.7122 255° West 179 206 5,200 -439 Descending Minneapolis Center
Tue 08:48:44 AM 40.7783 -98.7756 254° West 179 206 4,700 -492 Descending Minneapolis Center
Tue 08:50:00 AM 40.7564 -98.8460 248° West  Level FlightAware Approximate
Tue 08:57:00 AM 40.7167 -99.0000 270° West  Level FlightAware Approximate

Login

Don't have an account? Register now (free) for customized features, flight alerts, and more!